This is the latest recevied weather packets stored in our database for station/object N7TUG-8. If no packets are shown the sender has not sent any weather packets the latest 10 day(s).
| Time | Temp. | Humidity | Pressure | Rain* | Wind** | Luminosity | Snow |
|---|---|---|---|---|---|---|---|
| 1777929735 | 24.44° C | 59% | 1009.8 hPa | 0 mm | 1.79 m/s, 149° | - | - |
| 1777928925 | 23.89° C | 59% | 1009.8 hPa | 0 mm | 2.24 m/s, 151° | - | - |
| 1777928546 | 23.89° C | 60% | 1009.8 hPa | 0 mm | 2.24 m/s, 142° | - | - |
| 1777928065 | 23.89° C | 59% | 1009.8 hPa | 0 mm | 2.24 m/s, 163° | - | - |
| 1777927823 | 23.89° C | 59% | 1009.8 hPa | 0 mm | 2.24 m/s, 163° | - | - |
| 1777927281 | 24.44° C | 59% | 1009.8 hPa | 0 mm | 1.79 m/s, 155° | - | - |
| 1777926451 | 23.89° C | 60% | 1009.8 hPa | 0 mm | 1.79 m/s, 151° | - | - |
| 1777926137 | 23.89° C | 60% | 1009.8 hPa | 0 mm | 1.79 m/s, 148° | - | - |
| 1777925679 | 23.33° C | 60% | 1009.8 hPa | 0 mm | 1.79 m/s, 143° | - | - |
| 1777925316 | 23.33° C | 60% | 1009.9 hPa | 0 mm | 1.34 m/s, 169° | - | - |
| 1777924811 | 22.78° C | 61% | 1009.8 hPa | 0 mm | 1.34 m/s, 174° | - | - |
| 1777924036 | 22.78° C | 60% | 1009.9 hPa | 0 mm | 1.79 m/s, 159° | - | - |
| 1777923131 | 22.22° C | 59% | 1010 hPa | 0 mm | 2.68 m/s, 166° | - | - |
| 1777922832 | 22.78° C | 59% | 1010 hPa | 0 mm | 2.24 m/s, 164° | - | - |
| 1777922271 | 22.22° C | 58% | 1010.1 hPa | 0 mm | 2.68 m/s, 170° | - | - |
| 1777921474 | 23.89° C | 55% | 1010.2 hPa | 0 mm | 1.79 m/s, 179° | - | - |
| 1777921167 | 23.89° C | 53% | 1010.3 hPa | 0 mm | 1.34 m/s, 166° | - | - |
| 1777920646 | 23.89° C | 54% | 1010.2 hPa | 0 mm | 0.89 m/s, 123° | - | - |
| 1777919731 | 23.33° C | 56% | 1010.3 hPa | 0 mm | 0.89 m/s, 165° | - | - |
| 1777919476 | 22.78° C | 57% | 1010.2 hPa | 0 mm | 1.34 m/s, 161° | - | - |
| 1777918775 | 23.33° C | 56% | 1010.4 hPa | 0 mm | 1.34 m/s, 170° | - | - |
| 1777918662 | 23.33° C | 56% | 1010.4 hPa | 0 mm | 1.34 m/s, 170° | - | - |
| 1777917985 | 22.22° C | 58% | 1010.3 hPa | 0 mm | 1.79 m/s, 171° | - | - |
| 1777917086 | 22.78° C | 56% | 1010.3 hPa | 0 mm | 0.89 m/s, 158° | - | - |
| 1777916987 | 22.22° C | 57% | 1010.2 hPa | 0 mm | 1.34 m/s, 149° | - | - |
* Rain latest hour (hover to see other rain measurements)
** Current wind speed in m/s (hover to see current wind gust speed)